Flight Track Log - Related Links

Times and Time Zones

All times are in EDT time to prevent confusion due to time zone crossing. See the RPA3351 flight status page for this flight to view local times or setup timezone preferences in your user account.

Time Position Orientation Groundspeed Altitude Reporting Facility
EDT Latitude Longitude Course Direction KTS MPH feet Rate Location/Type
Sun 12:16:48 PM 42.7297 -73.8081 169° South 151 174 1,300  Level Boston Center
Sun 12:17:19 PM 42.7089 -73.8106 185° South 154 177 2,200 1,546 Climbing Boston Center
Sun 12:18:25 PM 42.7436 -73.8819 304° West 283 326 3,800 2,308 Climbing Boston Center
Sun 12:19:00 PM 42.4421 -74.0741 180° South  Level Estimated
Sun 12:19:42 PM 42.8303 -73.9433 333° Northwest 302 348 7,700  Level Boston Center
Sun 12:20:00 PM 42.3653 -74.1417 170° South  Level Estimated
Sun 12:20:42 PM 42.8922 -73.9903 331° Northwest 294 338 10,700  Level Boston Center
Sun 12:21:00 PM 42.2884 -74.2092 180° South  Level Estimated
Sun 12:21:42 PM 42.9683 -74.0461 332° Northwest 319 367 12,200  Level Boston Center
Sun 12:22:00 PM 42.2115 -74.2764 169° South  Level Estimated
Sun 12:22:42 PM 43.0422 -74.1333 319° Northwest 329 379 16,000  Level Boston Center
Sun 12:23:42 PM 42.9886 -74.2283 232° Southwest 226 260 18,800 2,000 Climbing Boston Center
Sun 12:24:42 PM 42.8953 -74.1944 165° South 283 326 20,000 1,450 Climbing Boston Center
Sun 12:25:42 PM 42.7836 -74.1375 159° South 330 380 21,700 1,650 Climbing Boston Center
Sun 12:26:42 PM 42.6764 -74.0725 156° South 392 451 23,300 1,700 Climbing Boston Center
Sun 12:27:42 PM 42.5481 -74.0097 160° South 426 490 25,100 1,300 Climbing Boston Center
Sun 12:28:42 PM 42.4300 -73.9478 159° South 448 516 25,900 450 Climbing Boston Center
Sun 12:29:42 PM 42.3119 -73.8861 159° South 448 516 26,000 300 Climbing Boston Center
Sun 12:30:42 PM 42.1939 -73.8244 159° South 455 524 26,500 700 Climbing Boston Center
Sun 12:31:42 PM 42.0739 -73.7631 159° South 461 531 27,400 750 Climbing Boston Center
Sun 12:32:42 PM 41.9639 -73.7050 159° South 461 531 28,000 300 Climbing Boston Center
Sun 12:33:42 PM 41.8350 -73.6800 172° South 467 537 28,000 -50 Level Boston Center
Sun 12:34:42 PM 41.7219 -73.7306 198° South 442 509 27,900  Descending Boston Center
Sun 12:37:03 PM 41.4611 -73.9186 208° Southwest 442 509 28,000 30 Climbing New York Center
Sun 12:38:04 PM 41.3550 -73.9967 209° Southwest 447 514 28,000  Level New York Center
Sun 12:39:01 PM 41.2531 -74.0717 209° Southwest 435 501 28,000  Level New York Center
Sun 12:40:02 PM 41.1489 -74.1464 208° Southwest 435 501 28,000  Level New York Center
Sun 12:41:02 PM 41.0447 -74.2183 208° Southwest 424 488 28,000  Level New York Center
Sun 12:42:03 PM 40.9583 -74.3211 222° Southwest 424 488 28,000  Level New York Center
Sun 12:43:03 PM 40.8781 -74.4267 225° Southwest 418 481 28,000  Level New York Center
Sun 12:44:01 PM 40.7956 -74.5319 224° Southwest 412 474 28,000  Level New York Center
Sun 12:45:02 PM 40.7169 -74.6369 225° Southwest 412 474 28,000  Level New York Center
Sun 12:46:02 PM 40.6367 -74.7392 224° Southwest 412 474 28,000  Level New York Center
Sun 12:47:03 PM 40.5625 -74.8331 224° Southwest 412 474 28,000 -50 Level New York Center
Sun 12:48:02 PM 40.4839 -74.9350 225° Southwest 412 474 27,900 -807 Descending New York Center
Sun 12:49:02 PM 40.4033 -75.0364 224° Southwest 412 474 26,400 -1,587 Descending New York Center
Sun 12:50:03 PM 40.3247 -75.1350 224° Southwest 407 468 24,700 -1,714 Descending New York Center
Sun 12:51:01 PM 40.2478 -75.2361 225° Southwest 396 456 23,000 -1,361 Descending New York Center
Sun 12:52:02 PM 40.1733 -75.3292 224° Southwest 391 450 22,000 -496 Descending New York Center
Sun 12:53:02 PM 40.0967 -75.4272 224° Southwest 386 444 22,000  Level New York Center
Sun 12:54:01 PM 40.0261 -75.5256 227° Southwest 386 444 22,000  Level New York Center
Sun 12:55:02 PM 39.9575 -75.6211 227° Southwest 381 438 22,000  Level New York Center
Sun 12:56:02 PM 39.8886 -75.7244 229° Southwest 381 438 22,000  Level New York Center
Sun 12:57:03 PM 39.8236 -75.8281 231° Southwest 381 438 22,000 -787 Level New York Center
Sun 12:58:04 PM 39.7589 -75.9314 231° Southwest 375 432 20,400 -1,866 Descending New York Center
Sun 12:59:02 PM 39.6917 -76.0372 230° Southwest 364 419 18,300 -2,085 Descending New York Center
Sun 01:00:02 PM 39.6286 -76.1378 231° Southwest 358 412 16,300 -1,884 Descending New York Center
Sun 01:01:03 PM 39.5722 -76.2278 231° Southwest 349 402 14,500 -1,686 Descending New York Center
Sun 01:02:03 PM 39.5206 -76.3097 231° Southwest 340 391 12,900 -1,181 Descending New York Center
Sun 01:03:10 PM 39.4500 -76.4167 230° Southwest 311 358 12,000 -425 Descending Potomac TRACON
Sun 01:04:10 PM 39.3833 -76.4833 218° Southwest 315 362 12,000 -400 Level Potomac TRACON
Sun 01:05:10 PM 39.3000 -76.5500 212° Southwest 309 356 11,200 -942 Descending Potomac TRACON
Sun 01:06:11 PM 39.2333 -76.6000 210° Southwest 311 358 10,100 -595 Descending Potomac TRACON
Sun 01:07:11 PM 39.1667 -76.6667 218° Southwest 285 328 10,000 -53 Descending Potomac TRACON
Sun 01:08:05 PM 39.1167 -76.7333 226° Southwest 278 320 10,000 -526 Level Potomac TRACON
Sun 01:09:05 PM 39.0833 -76.8167 243° Southwest 264 304 9,000 -900 Descending Potomac TRACON
Sun 01:10:05 PM 39.0667 -76.9000 256° West 230 265 8,200 -1,053 Descending Potomac TRACON
Sun 01:10:59 PM 39.0500 -76.9667 252° West 211 243 7,000 -1,550 Descending Potomac TRACON
Sun 01:12:05 PM 39.0333 -77.0333 252° West 197 227 5,100 -1,736 Descending Potomac TRACON
Sun 01:13:00 PM 39.0333 -77.1000 270° West 194 223 3,500 -1,745 Descending Potomac TRACON

Login

Don't have an account? Register now (free) for customized features, flight alerts, and more!